sensor_id;sensor_type;location;lat;lon;timestamp;noise_LAeq;noise_LA_min;noise_LA_max;noise_LA01;noise_LA95
69616;Laerm;56822;52.516;4.708;2024-02-14T00:00:06;43.17;41.53;46.58;;
69616;Laerm;56822;52.516;4.708;2024-02-14T00:00:20;43.43;41.74;49.52;;
69616;Laerm;56822;52.516;4.708;2024-02-14T00:00:30;43.29;41.78;45.46;;
69616;Laerm;56822;52.516;4.708;2024-02-14T00:00:41;43.29;41.75;48.15;;
69616;Laerm;56822;52.516;4.708;2024-02-14T00:00:51;43.38;41.91;47.94;;
69616;Laerm;56822;52.516;4.708;2024-02-14T00:01:02;43.47;41.60;50.79;;
69616;Laerm;56822;52.516;4.708;2024-02-14T00:01:13;42.82;41.48;45.89;;
69616;Laerm;56822;52.516;4.708;2024-02-14T00:01:23;42.98;41.57;46.23;;
69616;Laerm;56822;52.516;4.708;2024-02-14T00:01:33;42.97;41.56;49.40;;
69616;Laerm;56822;52.516;4.708;2024-02-14T00:01:44;43.51;41.17;56.09;;
69616;Laerm;56822;52.516;4.708;2024-02-14T00:01:54;43.10;41.42;45.74;;
69616;Laerm;56822;52.516;4.708;2024-02-14T00:02:05;44.64;41.66;60.39;;
69616;Laerm;56822;52.516;4.708;2024-02-14T00:02:16;43.47;41.85;47.55;;
69616;Laerm;56822;52.516;4.708;2024-02-14T00:02:26;43.61;41.95;49.80;;
69616;Laerm;56822;52.516;4.708;2024-02-14T00:02:36;45.15;42.44;61.68;;
69616;Laerm;56822;52.516;4.708;2024-02-14T00:02:47;44.30;42.33;53.78;;
69616;Laerm;56822;52.516;4.708;2024-02-14T00:03:00;44.16;42.15;50.95;;
69616;Laerm;56822;52.516;4.708;2024-02-14T00:03:10;44.92;42.37;56.88;;
69616;Laerm;56822;52.516;4.708;2024-02-14T00:03:21;44.35;42.58;51.11;;
69616;Laerm;56822;52.516;4.708;2024-02-14T00:03:33;44.56;42.57;51.98;;
69616;Laerm;56822;52.516;4.708;2024-02-14T00:03:43;43.86;42.08;54.18;;
69616;Laerm;56822;52.516;4.708;2024-02-14T00:03:54;43.38;41.89;50.96;;
69616;Laerm;56822;52.516;4.708;2024-02-14T00:04:05;43.49;41.98;50.67;;
69616;Laerm;56822;52.516;4.708;2024-02-14T00:04:17;43.17;41.86;45.02;;
69616;Laerm;56822;52.516;4.708;2024-02-14T00:04:28;43.58;41.62;53.39;;
69616;Laerm;56822;52.516;4.708;2024-02-14T00:04:38;43.11;41.75;45.70;;
69616;Laerm;56822;52.516;4.708;2024-02-14T00:04:49;43.51;41.50;54.21;;
69616;Laerm;56822;52.516;4.708;2024-02-14T00:04:59;43.61;41.56;50.86;;
69616;Laerm;56822;52.516;4.708;2024-02-14T00:05:10;43.56;42.06;48.69;;
69616;Laerm;56822;52.516;4.708;2024-02-14T00:05:20;43.71;42.13;50.04;;
69616;Laerm;56822;52.516;4.708;2024-02-14T00:05:31;45.26;42.16;53.89;;
69616;Laerm;56822;52.516;4.708;2024-02-14T00:05:41;45.48;42.25;58.37;;
69616;Laerm;56822;52.516;4.708;2024-02-14T00:05:51;44.59;42.60;51.37;;
69616;Laerm;56822;52.516;4.708;2024-02-14T00:06:03;44.52;42.29;52.63;;
69616;Laerm;56822;52.516;4.708;2024-02-14T00:06:14;45.13;42.67;57.31;;
69616;Laerm;56822;52.516;4.708;2024-02-14T00:06:24;44.88;42.69;56.06;;
69616;Laerm;56822;52.516;4.708;2024-02-14T00:06:35;45.90;42.81;53.57;;
69616;Laerm;56822;52.516;4.708;2024-02-14T00:06:45;50.95;43.00;73.92;;
69616;Laerm;56822;52.516;4.708;2024-02-14T00:06:55;44.43;42.63;50.44;;
69616;Laerm;56822;52.516;4.708;2024-02-14T00:07:06;44.97;42.36;55.43;;
69616;Laerm;56822;52.516;4.708;2024-02-14T00:07:16;43.83;41.89;50.54;;
69616;Laerm;56822;52.516;4.708;2024-02-14T00:07:26;43.75;41.98;48.91;;
69616;Laerm;56822;52.516;4.708;2024-02-14T00:07:37;44.00;42.36;49.23;;
69616;Laerm;56822;52.516;4.708;2024-02-14T00:07:47;43.86;41.88;48.17;;
69616;Laerm;56822;52.516;4.708;2024-02-14T00:07:58;44.90;42.18;63.35;;
69616;Laerm;56822;52.516;4.708;2024-02-14T00:08:08;44.31;42.42;59.66;;
69616;Laerm;56822;52.516;4.708;2024-02-14T00:08:18;43.52;41.64;49.44;;
69616;Laerm;56822;52.516;4.708;2024-02-14T00:08:28;43.72;42.09;47.87;;
69616;Laerm;56822;52.516;4.708;2024-02-14T00:08:39;43.73;42.27;47.87;;
69616;Laerm;56822;52.516;4.708;2024-02-14T00:08:50;43.41;41.60;44.81;;
69616;Laerm;56822;52.516;4.708;2024-02-14T00:09:00;43.28;41.82;46.52;;
69616;Laerm;56822;52.516;4.708;2024-02-14T00:09:10;43.47;41.86;46.55;;
69616;Laerm;56822;52.516;4.708;2024-02-14T00:09:21;43.17;41.52;45.70;;
69616;Laerm;56822;52.516;4.708;2024-02-14T00:09:32;43.40;41.87;51.76;;
69616;Laerm;56822;52.516;4.708;2024-02-14T00:09:42;43.37;41.39;46.58;;
69616;Laerm;56822;52.516;4.708;2024-02-14T00:09:52;43.33;41.68;47.58;;
69616;Laerm;56822;52.516;4.708;2024-02-14T00:10:03;43.47;42.00;47.46;;
69616;Laerm;56822;52.516;4.708;2024-02-14T00:10:15;43.50;42.13;45.45;;
69616;Laerm;56822;52.516;4.708;2024-02-14T00:10:26;43.33;41.67;48.78;;
69616;Laerm;56822;52.516;4.708;2024-02-14T00:10:36;43.63;42.31;46.20;;
69616;Laerm;56822;52.516;4.708;2024-02-14T00:10:46;44.86;42.17;55.64;;
69616;Laerm;56822;52.516;4.708;2024-02-14T00:10:58;48.97;42.55;63.21;;
69616;Laerm;56822;52.516;4.708;2024-02-14T00:11:08;45.38;42.13;58.13;;
69616;Laerm;56822;52.516;4.708;2024-02-14T00:11:19;44.00;41.83;52.71;;
69616;Laerm;56822;52.516;4.708;2024-02-14T00:11:29;43.29;41.79;44.77;;
69616;Laerm;56822;52.516;4.708;2024-02-14T00:11:39;43.61;42.14;47.08;;
69616;Laerm;56822;52.516;4.708;2024-02-14T00:11:50;43.73;42.28;45.36;;
69616;Laerm;56822;52.516;4.708;2024-02-14T00:12:00;43.60;42.17;45.15;;
69616;Laerm;56822;52.516;4.708;2024-02-14T00:12:10;43.73;42.02;45.71;;
69616;Laerm;56822;52.516;4.708;2024-02-14T00:12:21;43.59;42.13;52.05;;
69616;Laerm;56822;52.516;4.708;2024-02-14T00:12:34;43.72;42.35;53.20;;
69616;Laerm;56822;52.516;4.708;2024-02-14T00:12:45;43.64;42.05;46.21;;
69616;Laerm;56822;52.516;4.708;2024-02-14T00:12:56;45.39;41.97;54.69;;
69616;Laerm;56822;52.516;4.708;2024-02-14T00:13:06;43.99;41.83;49.01;;
69616;Laerm;56822;52.516;4.708;2024-02-14T00:13:18;44.16;42.47;50.03;;
69616;Laerm;56822;52.516;4.708;2024-02-14T00:13:28;45.14;41.99;59.90;;
69616;Laerm;56822;52.516;4.708;2024-02-14T00:13:39;45.35;42.49;56.01;;
69616;Laerm;56822;52.516;4.708;2024-02-14T00:13:49;43.94;42.48;47.42;;
69616;Laerm;56822;52.516;4.708;2024-02-14T00:14:00;44.60;42.35;50.47;;
69616;Laerm;56822;52.516;4.708;2024-02-14T00:14:10;44.54;42.69;54.14;;
69616;Laerm;56822;52.516;4.708;2024-02-14T00:14:21;44.95;43.30;56.41;;
69616;Laerm;56822;52.516;4.708;2024-02-14T00:14:31;45.01;43.23;53.18;;
69616;Laerm;56822;52.516;4.708;2024-02-14T00:14:41;44.89;43.11;56.88;;
69616;Laerm;56822;52.516;4.708;2024-02-14T00:14:52;45.00;43.02;55.55;;
69616;Laerm;56822;52.516;4.708;2024-02-14T00:15:05;44.83;43.22;52.55;;
69616;Laerm;56822;52.516;4.708;2024-02-14T00:15:17;45.09;42.82;57.30;;
69616;Laerm;56822;52.516;4.708;2024-02-14T00:15:27;45.21;42.81;55.39;;
69616;Laerm;56822;52.516;4.708;2024-02-14T00:15:37;46.47;43.42;57.31;;
69616;Laerm;56822;52.516;4.708;2024-02-14T00:15:48;45.35;42.80;55.38;;
69616;Laerm;56822;52.516;4.708;2024-02-14T00:15:58;44.93;42.38;58.35;;
69616;Laerm;56822;52.516;4.708;2024-02-14T00:16:08;45.03;42.49;58.68;;
69616;Laerm;56822;52.516;4.708;2024-02-14T00:16:19;44.11;42.41;49.22;;
69616;Laerm;56822;52.516;4.708;2024-02-14T00:16:29;43.84;42.07;51.46;;
69616;Laerm;56822;52.516;4.708;2024-02-14T00:16:42;43.69;41.83;50.96;;
69616;Laerm;56822;52.516;4.708;2024-02-14T00:16:53;43.85;41.76;51.86;;
69616;Laerm;56822;52.516;4.708;2024-02-14T00:17:04;43.44;42.08;46.89;;
69616;Laerm;56822;52.516;4.708;2024-02-14T00:17:15;43.84;42.31;54.63;;
69616;Laerm;56822;52.516;4.708;2024-02-14T00:17:25;43.78;42.11;52.89;;
69616;Laerm;56822;52.516;4.708;2024-02-14T00:17:35;43.32;42.19;44.87;;
69616;Laerm;56822;52.516;4.708;2024-02-14T00:17:46;43.39;41.97;45.47;;
69616;Laerm;56822;52.516;4.708;2024-02-14T00:17:56;43.47;41.77;45.58;;
69616;Laerm;56822;52.516;4.708;2024-02-14T00:18:06;43.57;42.07;48.36;;
69616;Laerm;56822;52.516;4.708;2024-02-14T00:18:17;43.40;41.85;45.54;;
69616;Laerm;56822;52.516;4.708;2024-02-14T00:18:27;44.03;41.68;56.30;;
69616;Laerm;56822;52.516;4.708;2024-02-14T00:18:37;49.82;41.71;63.29;;
69616;Laerm;56822;52.516;4.708;2024-02-14T00:18:47;43.81;42.18;53.18;;
69616;Laerm;56822;52.516;4.708;2024-02-14T00:18:58;43.57;42.05;50.97;;
69616;Laerm;56822;52.516;4.708;2024-02-14T00:19:08;43.50;41.79;50.16;;
69616;Laerm;56822;52.516;4.708;2024-02-14T00:19:18;43.48;41.81;49.44;;
69616;Laerm;56822;52.516;4.708;2024-02-14T00:19:29;43.27;41.83;46.16;;
69616;Laerm;56822;52.516;4.708;2024-02-14T00:19:39;43.72;42.08;52.53;;
69616;Laerm;56822;52.516;4.708;2024-02-14T00:19:49;43.44;41.75;48.64;;
69616;Laerm;56822;52.516;4.708;2024-02-14T00:20:02;43.27;41.73;51.84;;
69616;Laerm;56822;52.516;4.708;2024-02-14T00:20:13;43.34;41.47;48.29;;
69616;Laerm;56822;52.516;4.708;2024-02-14T00:20:23;43.59;42.06;49.59;;
69616;Laerm;56822;52.516;4.708;2024-02-14T00:20:34;43.62;41.89;52.43;;
69616;Laerm;56822;52.516;4.708;2024-02-14T00:20:45;43.41;41.24;47.05;;
69616;Laerm;56822;52.516;4.708;2024-02-14T00:20:56;43.31;41.68;47.91;;
69616;Laerm;56822;52.516;4.708;2024-02-14T00:21:06;43.26;41.35;45.69;;
69616;Laerm;56822;52.516;4.708;2024-02-14T00:21:16;43.20;41.56;46.77;;
69616;Laerm;56822;52.516;4.708;2024-02-14T00:21:27;43.23;41.88;45.65;;
69616;Laerm;56822;52.516;4.708;2024-02-14T00:21:37;43.24;41.65;47.84;;
69616;Laerm;56822;52.516;4.708;2024-02-14T00:21:48;43.19;41.67;46.89;;
69616;Laerm;56822;52.516;4.708;2024-02-14T00:21:58;43.43;41.81;49.34;;
69616;Laerm;56822;52.516;4.708;2024-02-14T00:22:09;43.36;41.75;48.39;;
69616;Laerm;56822;52.516;4.708;2024-02-14T00:22:19;43.16;41.65;45.03;;
69616;Laerm;56822;52.516;4.708;2024-02-14T00:22:30;43.10;41.54;47.71;;
69616;Laerm;56822;52.516;4.708;2024-02-14T00:22:40;43.10;41.75;45.15;;
69616;Laerm;56822;52.516;4.708;2024-02-14T00:22:50;43.29;41.79;47.28;;
69616;Laerm;56822;52.516;4.708;2024-02-14T00:23:01;43.17;41.41;46.22;;
69616;Laerm;56822;52.516;4.708;2024-02-14T00:23:11;43.50;41.88;49.50;;
69616;Laerm;56822;52.516;4.708;2024-02-14T00:23:22;43.44;41.91;46.81;;
69616;Laerm;56822;52.516;4.708;2024-02-14T00:23:32;43.28;41.58;45.24;;
69616;Laerm;56822;52.516;4.708;2024-02-14T00:23:42;43.19;41.71;44.91;;
69616;Laerm;56822;52.516;4.708;2024-02-14T00:23:53;43.23;41.76;44.91;;
69616;Laerm;56822;52.516;4.708;2024-02-14T00:24:04;43.45;41.91;45.72;;
69616;Laerm;56822;52.516;4.708;2024-02-14T00:24:14;43.66;42.30;51.95;;
69616;Laerm;56822;52.516;4.708;2024-02-14T00:24:26;43.68;41.58;45.76;;
69616;Laerm;56822;52.516;4.708;2024-02-14T00:24:38;43.43;42.14;45.15;;
69616;Laerm;56822;52.516;4.708;2024-02-14T00:24:48;43.52;41.72;45.28;;
69616;Laerm;56822;52.516;4.708;2024-02-14T00:24:58;43.96;42.40;48.65;;
69616;Laerm;56822;52.516;4.708;2024-02-14T00:25:08;44.24;42.04;60.73;;
69616;Laerm;56822;52.516;4.708;2024-02-14T00:25:19;44.10;42.20;60.15;;
69616;Laerm;56822;52.516;4.708;2024-02-14T00:25:29;43.77;42.21;48.96;;
69616;Laerm;56822;52.516;4.708;2024-02-14T00:25:40;43.86;42.04;53.07;;
69616;Laerm;56822;52.516;4.708;2024-02-14T00:25:50;43.46;41.94;46.87;;
69616;Laerm;56822;52.516;4.708;2024-02-14T00:26:00;43.80;42.18;53.28;;
69616;Laerm;56822;52.516;4.708;2024-02-14T00:26:11;43.78;42.30;45.61;;
69616;Laerm;56822;52.516;4.708;2024-02-14T00:26:21;44.10;42.43;50.94;;
69616;Laerm;56822;52.516;4.708;2024-02-14T00:26:32;44.01;42.30;50.29;;
69616;Laerm;56822;52.516;4.708;2024-02-14T00:26:42;45.83;41.94;65.40;;
69616;Laerm;56822;52.516;4.708;2024-02-14T00:26:53;44.24;42.67;50.33;;
69616;Laerm;56822;52.516;4.708;2024-02-14T00:27:03;44.15;42.24;47.48;;
69616;Laerm;56822;52.516;4.708;2024-02-14T00:27:14;44.80;42.68;55.22;;
69616;Laerm;56822;52.516;4.708;2024-02-14T00:27:24;46.87;43.18;56.96;;
69616;Laerm;56822;52.516;4.708;2024-02-14T00:27:36;45.17;43.05;58.08;;
69616;Laerm;56822;52.516;4.708;2024-02-14T00:27:46;43.94;42.41;47.15;;
69616;Laerm;56822;52.516;4.708;2024-02-14T00:27:57;43.96;42.06;47.04;;
69616;Laerm;56822;52.516;4.708;2024-02-14T00:28:10;44.37;42.31;55.60;;
69616;Laerm;56822;52.516;4.708;2024-02-14T00:28:21;44.37;42.68;57.00;;
69616;Laerm;56822;52.516;4.708;2024-02-14T00:28:33;44.23;42.42;50.19;;
69616;Laerm;56822;52.516;4.708;2024-02-14T00:28:44;43.65;42.35;47.46;;
69616;Laerm;56822;52.516;4.708;2024-02-14T00:28:54;43.90;42.61;47.68;;
69616;Laerm;56822;52.516;4.708;2024-02-14T00:29:04;44.58;42.62;50.36;;
69616;Laerm;56822;52.516;4.708;2024-02-14T00:29:15;44.09;42.28;50.31;;
69616;Laerm;56822;52.516;4.708;2024-02-14T00:29:25;44.03;42.25;54.19;;
69616;Laerm;56822;52.516;4.708;2024-02-14T00:29:35;44.16;42.50;46.90;;
69616;Laerm;56822;52.516;4.708;2024-02-14T00:29:45;44.19;42.24;52.83;;
69616;Laerm;56822;52.516;4.708;2024-02-14T00:29:56;44.21;42.37;54.31;;
69616;Laerm;56822;52.516;4.708;2024-02-14T00:30:07;44.15;42.60;49.14;;
69616;Laerm;56822;52.516;4.708;2024-02-14T00:30:17;44.84;42.54;60.14;;
69616;Laerm;56822;52.516;4.708;2024-02-14T00:30:28;43.97;42.28;45.91;;
69616;Laerm;56822;52.516;4.708;2024-02-14T00:30:38;44.37;42.37;49.17;;
69616;Laerm;56822;52.516;4.708;2024-02-14T00:30:48;44.05;42.18;48.04;;
69616;Laerm;56822;52.516;4.708;2024-02-14T00:30:58;43.67;42.30;46.25;;
69616;Laerm;56822;52.516;4.708;2024-02-14T00:31:09;44.27;42.34;48.57;;
69616;Laerm;56822;52.516;4.708;2024-02-14T00:31:19;44.02;42.35;46.15;;
69616;Laerm;56822;52.516;4.708;2024-02-14T00:31:30;44.50;43.26;46.65;;
69616;Laerm;56822;52.516;4.708;2024-02-14T00:31:40;44.44;42.07;55.08;;
69616;Laerm;56822;52.516;4.708;2024-02-14T00:31:51;44.15;42.29;50.74;;
69616;Laerm;56822;52.516;4.708;2024-02-14T00:32:01;43.58;42.26;46.63;;
69616;Laerm;56822;52.516;4.708;2024-02-14T00:32:12;43.96;42.04;54.90;;
69616;Laerm;56822;52.516;4.708;2024-02-14T00:32:22;43.47;41.90;45.55;;
69616;Laerm;56822;52.516;4.708;2024-02-14T00:32:32;44.48;42.16;58.82;;
69616;Laerm;56822;52.516;4.708;2024-02-14T00:32:43;43.47;41.96;46.02;;
69616;Laerm;56822;52.516;4.708;2024-02-14T00:32:53;43.40;41.98;45.20;;
69616;Laerm;56822;52.516;4.708;2024-02-14T00:33:04;43.70;42.01;47.02;;
69616;Laerm;56822;52.516;4.708;2024-02-14T00:33:14;43.66;41.94;45.61;;
69616;Laerm;56822;52.516;4.708;2024-02-14T00:33:25;43.65;42.04;52.36;;
69616;Laerm;56822;52.516;4.708;2024-02-14T00:33:35;43.51;42.14;46.84;;
69616;Laerm;56822;52.516;4.708;2024-02-14T00:33:45;43.58;42.23;47.24;;
69616;Laerm;56822;52.516;4.708;2024-02-14T00:33:56;43.53;41.83;47.50;;
69616;Laerm;56822;52.516;4.708;2024-02-14T00:34:06;44.39;42.57;49.38;;
69616;Laerm;56822;52.516;4.708;2024-02-14T00:34:16;46.01;42.26;63.63;;
69616;Laerm;56822;52.516;4.708;2024-02-14T00:34:27;43.45;41.92;47.26;;
69616;Laerm;56822;52.516;4.708;2024-02-14T00:34:37;44.15;41.91;58.49;;
69616;Laerm;56822;52.516;4.708;2024-02-14T00:34:47;44.01;42.32;51.66;;
69616;Laerm;56822;52.516;4.708;2024-02-14T00:34:59;45.13;42.23;53.14;;
69616;Laerm;56822;52.516;4.708;2024-02-14T00:35:09;44.55;41.68;55.08;;
69616;Laerm;56822;52.516;4.708;2024-02-14T00:35:20;44.69;42.27;60.27;;
69616;Laerm;56822;52.516;4.708;2024-02-14T00:35:30;44.33;42.39;51.77;;
69616;Laerm;56822;52.516;4.708;2024-02-14T00:35:41;44.26;42.14;57.63;;
69616;Laerm;56822;52.516;4.708;2024-02-14T00:35:51;43.92;42.31;51.63;;
69616;Laerm;56822;52.516;4.708;2024-02-14T00:36:01;44.03;42.23;49.24;;
69616;Laerm;56822;52.516;4.708;2024-02-14T00:36:12;43.58;42.06;46.26;;
69616;Laerm;56822;52.516;4.708;2024-02-14T00:36:23;43.91;41.97;50.62;;
69616;Laerm;56822;52.516;4.708;2024-02-14T00:36:33;43.76;42.12;53.61;;
69616;Laerm;56822;52.516;4.708;2024-02-14T00:36:43;44.17;42.43;52.54;;
69616;Laerm;56822;52.516;4.708;2024-02-14T00:36:53;43.66;42.27;53.05;;
69616;Laerm;56822;52.516;4.708;2024-02-14T00:37:04;43.81;41.80;53.03;;
69616;Laerm;56822;52.516;4.708;2024-02-14T00:37:14;43.86;41.78;54.16;;
69616;Laerm;56822;52.516;4.708;2024-02-14T00:37:24;43.42;41.78;50.69;;
69616;Laerm;56822;52.516;4.708;2024-02-14T00:37:35;44.33;42.05;56.25;;
69616;Laerm;56822;52.516;4.708;2024-02-14T00:37:45;45.71;41.87;60.06;;
69616;Laerm;56822;52.516;4.708;2024-02-14T00:37:55;44.04;42.00;53.84;;
69616;Laerm;56822;52.516;4.708;2024-02-14T00:38:06;48.83;42.60;61.93;;
69616;Laerm;56822;52.516;4.708;2024-02-14T00:38:16;45.20;42.71;55.85;;
69616;Laerm;56822;52.516;4.708;2024-02-14T00:38:27;45.63;42.23;56.91;;
69616;Laerm;56822;52.516;4.708;2024-02-14T00:38:37;44.11;42.63;49.16;;
69616;Laerm;56822;52.516;4.708;2024-02-14T00:38:47;43.92;42.36;50.88;;
69616;Laerm;56822;52.516;4.708;2024-02-14T00:38:58;44.79;42.43;57.19;;
69616;Laerm;56822;52.516;4.708;2024-02-14T00:39:08;45.10;41.97;61.48;;
69616;Laerm;56822;52.516;4.708;2024-02-14T00:39:19;44.11;42.35;47.69;;
69616;Laerm;56822;52.516;4.708;2024-02-14T00:39:29;44.12;41.87;55.49;;
69616;Laerm;56822;52.516;4.708;2024-02-14T00:39:40;43.59;41.74;45.44;;
69616;Laerm;56822;52.516;4.708;2024-02-14T00:39:50;43.98;42.29;51.87;;
69616;Laerm;56822;52.516;4.708;2024-02-14T00:40:02;43.74;42.11;46.08;;
69616;Laerm;56822;52.516;4.708;2024-02-14T00:40:12;43.61;41.92;47.93;;
69616;Laerm;56822;52.516;4.708;2024-02-14T00:40:23;43.82;42.32;46.98;;
69616;Laerm;56822;52.516;4.708;2024-02-14T00:40:33;43.62;41.96;46.22;;
69616;Laerm;56822;52.516;4.708;2024-02-14T00:40:44;43.64;42.02;47.06;;
69616;Laerm;56822;52.516;4.708;2024-02-14T00:40:54;43.37;41.76;46.44;;
69616;Laerm;56822;52.516;4.708;2024-02-14T00:41:04;43.27;41.72;45.89;;
69616;Laerm;56822;52.516;4.708;2024-02-14T00:41:15;43.37;41.62;47.55;;
69616;Laerm;56822;52.516;4.708;2024-02-14T00:41:25;43.01;40.96;46.18;;
69616;Laerm;56822;52.516;4.708;2024-02-14T00:41:39;43.26;41.51;47.09;;
69616;Laerm;56822;52.516;4.708;2024-02-14T00:41:50;44.74;41.59;60.20;;
69616;Laerm;56822;52.516;4.708;2024-02-14T00:42:02;43.23;41.64;47.60;;
69616;Laerm;56822;52.516;4.708;2024-02-14T00:42:12;43.42;41.69;47.68;;
69616;Laerm;56822;52.516;4.708;2024-02-14T00:42:23;43.24;41.71;47.61;;
69616;Laerm;56822;52.516;4.708;2024-02-14T00:42:33;43.22;41.62;50.70;;
69616;Laerm;56822;52.516;4.708;2024-02-14T00:42:43;43.42;41.82;48.49;;
69616;Laerm;56822;52.516;4.708;2024-02-14T00:42:54;43.08;41.64;45.57;;
69616;Laerm;56822;52.516;4.708;2024-02-14T00:43:04;43.40;41.72;50.29;;
69616;Laerm;56822;52.516;4.708;2024-02-14T00:43:14;43.61;41.97;55.13;;
69616;Laerm;56822;52.516;4.708;2024-02-14T00:43:24;43.34;41.87;46.24;;
69616;Laerm;56822;52.516;4.708;2024-02-14T00:43:35;43.63;41.41;50.28;;
69616;Laerm;56822;52.516;4.708;2024-02-14T00:43:46;43.21;41.57;46.16;;
69616;Laerm;56822;52.516;4.708;2024-02-14T00:43:56;43.47;41.97;49.56;;
69616;Laerm;56822;52.516;4.708;2024-02-14T00:44:06;43.45;41.98;47.88;;
69616;Laerm;56822;52.516;4.708;2024-02-14T00:44:17;43.27;41.58;45.35;;
69616;Laerm;56822;52.516;4.708;2024-02-14T00:44:28;43.53;42.09;48.69;;
69616;Laerm;56822;52.516;4.708;2024-02-14T00:44:39;43.32;41.88;45.64;;
69616;Laerm;56822;52.516;4.708;2024-02-14T00:44:49;43.32;41.79;50.60;;
69616;Laerm;56822;52.516;4.708;2024-02-14T00:44:59;43.16;41.42;50.36;;
69616;Laerm;56822;52.516;4.708;2024-02-14T00:45:10;43.24;41.31;48.30;;
69616;Laerm;56822;52.516;4.708;2024-02-14T00:45:20;43.08;41.51;44.70;;
69616;Laerm;56822;52.516;4.708;2024-02-14T00:45:30;44.05;42.37;55.84;;
69616;Laerm;56822;52.516;4.708;2024-02-14T00:45:40;45.33;41.83;56.46;;
69616;Laerm;56822;52.516;4.708;2024-02-14T00:45:51;43.32;41.70;49.22;;
69616;Laerm;56822;52.516;4.708;2024-02-14T00:46:01;43.39;41.84;49.26;;
69616;Laerm;56822;52.516;4.708;2024-02-14T00:46:15;43.62;42.04;53.49;;
69616;Laerm;56822;52.516;4.708;2024-02-14T00:46:25;43.53;41.92;48.33;;
69616;Laerm;56822;52.516;4.708;2024-02-14T00:46:36;43.80;41.97;53.68;;
69616;Laerm;56822;52.516;4.708;2024-02-14T00:46:46;44.10;42.01;50.74;;
69616;Laerm;56822;52.516;4.708;2024-02-14T00:46:57;43.40;41.85;49.33;;
69616;Laerm;56822;52.516;4.708;2024-02-14T00:47:09;43.45;41.62;47.02;;
69616;Laerm;56822;52.516;4.708;2024-02-14T00:47:19;43.62;42.18;47.24;;
69616;Laerm;56822;52.516;4.708;2024-02-14T00:47:29;43.43;42.11;50.75;;
69616;Laerm;56822;52.516;4.708;2024-02-14T00:47:39;43.07;41.86;47.72;;
69616;Laerm;56822;52.516;4.708;2024-02-14T00:47:50;43.14;41.38;51.32;;
69616;Laerm;56822;52.516;4.708;2024-02-14T00:48:01;42.85;41.24;45.77;;
69616;Laerm;56822;52.516;4.708;2024-02-14T00:48:11;43.04;41.26;46.04;;
69616;Laerm;56822;52.516;4.708;2024-02-14T00:48:24;43.27;41.92;45.14;;
69616;Laerm;56822;52.516;4.708;2024-02-14T00:48:35;43.46;41.64;46.18;;
69616;Laerm;56822;52.516;4.708;2024-02-14T00:48:45;43.46;41.41;47.79;;
69616;Laerm;56822;52.516;4.708;2024-02-14T00:48:55;42.82;41.48;46.22;;
69616;Laerm;56822;52.516;4.708;2024-02-14T00:49:06;42.83;41.27;45.17;;
69616;Laerm;56822;52.516;4.708;2024-02-14T00:49:16;42.92;41.25;47.70;;
69616;Laerm;56822;52.516;4.708;2024-02-14T00:49:26;42.74;41.08;44.74;;
69616;Laerm;56822;52.516;4.708;2024-02-14T00:49:37;42.67;41.30;44.65;;
69616;Laerm;56822;52.516;4.708;2024-02-14T00:49:49;42.90;41.30;48.66;;
69616;Laerm;56822;52.516;4.708;2024-02-14T00:49:59;42.96;41.45;46.55;;
69616;Laerm;56822;52.516;4.708;2024-02-14T00:50:09;42.82;41.43;48.44;;
69616;Laerm;56822;52.516;4.708;2024-02-14T00:50:20;42.61;41.18;45.15;;
69616;Laerm;56822;52.516;4.708;2024-02-14T00:50:30;42.49;41.23;44.35;;
69616;Laerm;56822;52.516;4.708;2024-02-14T00:50:41;42.61;41.23;45.02;;
69616;Laerm;56822;52.516;4.708;2024-02-14T00:50:51;43.05;41.40;53.25;;
69616;Laerm;56822;52.516;4.708;2024-02-14T00:51:02;42.36;40.91;44.85;;
69616;Laerm;56822;52.516;4.708;2024-02-14T00:51:12;42.48;40.76;46.78;;
69616;Laerm;56822;52.516;4.708;2024-02-14T00:51:22;42.50;41.25;45.47;;
69616;Laerm;56822;52.516;4.708;2024-02-14T00:51:33;42.60;41.31;44.08;;
69616;Laerm;56822;52.516;4.708;2024-02-14T00:51:43;42.56;41.21;44.47;;
69616;Laerm;56822;52.516;4.708;2024-02-14T00:51:53;42.83;41.53;44.69;;
69616;Laerm;56822;52.516;4.708;2024-02-14T00:52:04;42.67;41.32;46.00;;
69616;Laerm;56822;52.516;4.708;2024-02-14T00:52:14;42.91;41.40;46.59;;
69616;Laerm;56822;52.516;4.708;2024-02-14T00:52:26;42.80;41.36;46.75;;
69616;Laerm;56822;52.516;4.708;2024-02-14T00:52:36;42.62;41.00;45.72;;
69616;Laerm;56822;52.516;4.708;2024-02-14T00:52:47;42.74;40.97;45.90;;
69616;Laerm;56822;52.516;4.708;2024-02-14T00:52:57;42.60;40.54;44.80;;
69616;Laerm;56822;52.516;4.708;2024-02-14T00:53:07;42.47;41.20;44.35;;
69616;Laerm;56822;52.516;4.708;2024-02-14T00:53:18;42.65;41.22;46.62;;
69616;Laerm;56822;52.516;4.708;2024-02-14T00:53:28;42.57;41.18;45.48;;
69616;Laerm;56822;52.516;4.708;2024-02-14T00:53:39;43.42;41.40;52.66;;
69616;Laerm;56822;52.516;4.708;2024-02-14T00:53:49;43.44;41.36;57.50;;
69616;Laerm;56822;52.516;4.708;2024-02-14T00:53:59;42.88;41.36;45.35;;
69616;Laerm;56822;52.516;4.708;2024-02-14T00:54:10;43.18;41.15;50.95;;
69616;Laerm;56822;52.516;4.708;2024-02-14T00:54:20;43.26;41.16;49.23;;
69616;Laerm;56822;52.516;4.708;2024-02-14T00:54:30;43.71;41.71;54.96;;
69616;Laerm;56822;52.516;4.708;2024-02-14T00:54:41;43.91;41.50;57.22;;
69616;Laerm;56822;52.516;4.708;2024-02-14T00:54:51;44.11;41.70;58.06;;
69616;Laerm;56822;52.516;4.708;2024-02-14T00:55:01;44.13;41.58;53.14;;
69616;Laerm;56822;52.516;4.708;2024-02-14T00:55:14;42.69;41.04;45.43;;
69616;Laerm;56822;52.516;4.708;2024-02-14T00:55:25;43.02;41.06;50.17;;
69616;Laerm;56822;52.516;4.708;2024-02-14T00:55:35;42.73;41.36;47.76;;
69616;Laerm;56822;52.516;4.708;2024-02-14T00:55:45;43.14;41.35;51.72;;
69616;Laerm;56822;52.516;4.708;2024-02-14T00:55:55;43.41;41.81;51.98;;
69616;Laerm;56822;52.516;4.708;2024-02-14T00:56:06;42.95;41.00;48.80;;
69616;Laerm;56822;52.516;4.708;2024-02-14T00:56:17;42.76;40.96;44.82;;
69616;Laerm;56822;52.516;4.708;2024-02-14T00:56:28;42.63;40.84;45.22;;
69616;Laerm;56822;52.516;4.708;2024-02-14T00:56:38;43.11;41.42;50.43;;
69616;Laerm;56822;52.516;4.708;2024-02-14T00:56:48;43.91;41.78;52.53;;
69616;Laerm;56822;52.516;4.708;2024-02-14T00:56:59;47.07;41.67;62.95;;
69616;Laerm;56822;52.516;4.708;2024-02-14T00:57:09;43.32;41.24;49.15;;
69616;Laerm;56822;52.516;4.708;2024-02-14T00:57:20;43.97;41.74;51.57;;
69616;Laerm;56822;52.516;4.708;2024-02-14T00:57:30;42.79;41.04;46.63;;
69616;Laerm;56822;52.516;4.708;2024-02-14T00:57:40;43.21;41.36;53.51;;
69616;Laerm;56822;52.516;4.708;2024-02-14T00:57:50;43.50;41.60;46.81;;
69616;Laerm;56822;52.516;4.708;2024-02-14T00:58:01;42.94;41.65;45.00;;
69616;Laerm;56822;52.516;4.708;2024-02-14T00:58:12;43.08;41.59;44.89;;
69616;Laerm;56822;52.516;4.708;2024-02-14T00:58:22;42.90;41.26;46.12;;
69616;Laerm;56822;52.516;4.708;2024-02-14T00:58:32;43.05;41.67;44.51;;
69616;Laerm;56822;52.516;4.708;2024-02-14T00:58:43;43.26;41.64;48.61;;
69616;Laerm;56822;52.516;4.708;2024-02-14T00:58:53;43.01;41.45;47.40;;
69616;Laerm;56822;52.516;4.708;2024-02-14T00:59:04;43.10;41.02;48.16;;
69616;Laerm;56822;52.516;4.708;2024-02-14T00:59:14;43.18;41.33;48.16;;